sensor_id;sensor_type;location;lat;lon;timestamp;P1;durP1;ratioP1;P2;durP2;ratioP2
52380;SDS011;38310;52.796;6.942;2023-04-24T00:00:09;2.88;;;2.53;;
52380;SDS011;38310;52.796;6.942;2023-04-24T00:02:35;3.35;;;2.90;;
52380;SDS011;38310;52.796;6.942;2023-04-24T00:05:05;5.13;;;3.05;;
52380;SDS011;38310;52.796;6.942;2023-04-24T00:07:31;3.67;;;3.00;;
52380;SDS011;38310;52.796;6.942;2023-04-24T00:09:57;4.03;;;3.50;;
52380;SDS011;38310;52.796;6.942;2023-04-24T00:12:23;3.45;;;3.05;;
52380;SDS011;38310;52.796;6.942;2023-04-24T00:14:49;4.32;;;3.72;;
52380;SDS011;38310;52.796;6.942;2023-04-24T00:17:15;5.18;;;4.25;;
52380;SDS011;38310;52.796;6.942;2023-04-24T00:19:44;5.03;;;4.47;;
52380;SDS011;38310;52.796;6.942;2023-04-24T00:22:11;7.72;;;4.80;;
52380;SDS011;38310;52.796;6.942;2023-04-24T00:24:38;5.50;;;4.75;;
52380;SDS011;38310;52.796;6.942;2023-04-24T00:27:04;5.90;;;5.28;;
52380;SDS011;38310;52.796;6.942;2023-04-24T00:29:30;6.20;;;5.15;;
52380;SDS011;38310;52.796;6.942;2023-04-24T00:31:56;6.65;;;5.38;;
52380;SDS011;38310;52.796;6.942;2023-04-24T00:34:22;4.47;;;3.50;;
52380;SDS011;38310;52.796;6.942;2023-04-24T00:36:48;4.35;;;3.78;;
52380;SDS011;38310;52.796;6.942;2023-04-24T00:39:17;4.28;;;3.42;;
52380;SDS011;38310;52.796;6.942;2023-04-24T00:41:43;4.22;;;3.08;;
52380;SDS011;38310;52.796;6.942;2023-04-24T00:44:10;3.38;;;2.58;;
52380;SDS011;38310;52.796;6.942;2023-04-24T00:46:36;3.83;;;3.08;;
52380;SDS011;38310;52.796;6.942;2023-04-24T00:49:02;4.10;;;2.72;;
52380;SDS011;38310;52.796;6.942;2023-04-24T00:51:31;3.03;;;2.30;;
52380;SDS011;38310;52.796;6.942;2023-04-24T00:53:58;3.00;;;2.60;;
52380;SDS011;38310;52.796;6.942;2023-04-24T00:56:25;3.92;;;2.80;;
52380;SDS011;38310;52.796;6.942;2023-04-24T00:58:51;3.25;;;2.80;;
52380;SDS011;38310;52.796;6.942;2023-04-24T01:01:17;4.13;;;3.17;;
52380;SDS011;38310;52.796;6.942;2023-04-24T01:03:46;3.17;;;2.88;;
52380;SDS011;38310;52.796;6.942;2023-04-24T01:06:13;3.95;;;3.53;;
52380;SDS011;38310;52.796;6.942;2023-04-24T01:08:39;4.70;;;3.58;;
52380;SDS011;38310;52.796;6.942;2023-04-24T01:11:06;4.28;;;3.60;;
52380;SDS011;38310;52.796;6.942;2023-04-24T01:13:32;4.35;;;3.60;;
52380;SDS011;38310;52.796;6.942;2023-04-24T01:15:59;5.53;;;4.60;;
52380;SDS011;38310;52.796;6.942;2023-04-24T01:18:25;5.50;;;4.22;;
52380;SDS011;38310;52.796;6.942;2023-04-24T01:20:53;4.95;;;4.45;;
52380;SDS011;38310;52.796;6.942;2023-04-24T01:23:20;5.18;;;4.68;;
52380;SDS011;38310;52.796;6.942;2023-04-24T01:25:46;5.00;;;4.38;;
52380;SDS011;38310;52.796;6.942;2023-04-24T01:28:13;5.10;;;4.15;;
52380;SDS011;38310;52.796;6.942;2023-04-24T01:30:39;6.22;;;4.55;;
52380;SDS011;38310;52.796;6.942;2023-04-24T01:33:05;5.10;;;4.57;;
52380;SDS011;38310;52.796;6.942;2023-04-24T01:35:31;4.97;;;4.47;;
52380;SDS011;38310;52.796;6.942;2023-04-24T01:37:57;6.40;;;4.95;;
52380;SDS011;38310;52.796;6.942;2023-04-24T01:40:23;6.43;;;5.22;;
52380;SDS011;38310;52.796;6.942;2023-04-24T01:42:48;7.43;;;5.93;;
52380;SDS011;38310;52.796;6.942;2023-04-24T01:45:15;6.65;;;5.15;;
52380;SDS011;38310;52.796;6.942;2023-04-24T01:47:41;7.13;;;6.43;;
52380;SDS011;38310;52.796;6.942;2023-04-24T01:50:07;8.52;;;6.75;;
52380;SDS011;38310;52.796;6.942;2023-04-24T01:52:33;10.90;;;7.45;;
52380;SDS011;38310;52.796;6.942;2023-04-24T01:55:01;8.80;;;7.63;;
52380;SDS011;38310;52.796;6.942;2023-04-24T01:57:31;11.02;;;9.00;;
52380;SDS011;38310;52.796;6.942;2023-04-24T01:59:57;10.80;;;9.13;;
52380;SDS011;38310;52.796;6.942;2023-04-24T02:02:23;10.20;;;9.10;;
52380;SDS011;38310;52.796;6.942;2023-04-24T02:04:53;10.38;;;9.02;;
52380;SDS011;38310;52.796;6.942;2023-04-24T02:07:19;11.30;;;9.52;;
52380;SDS011;38310;52.796;6.942;2023-04-24T02:09:45;12.50;;;10.48;;
52380;SDS011;38310;52.796;6.942;2023-04-24T02:12:11;10.55;;;9.25;;
52380;SDS011;38310;52.796;6.942;2023-04-24T02:14:37;11.95;;;10.32;;
52380;SDS011;38310;52.796;6.942;2023-04-24T02:17:02;11.38;;;8.32;;
52380;SDS011;38310;52.796;6.942;2023-04-24T02:19:28;11.60;;;8.57;;
52380;SDS011;38310;52.796;6.942;2023-04-24T02:21:54;9.27;;;7.78;;
52380;SDS011;38310;52.796;6.942;2023-04-24T02:24:20;10.48;;;8.45;;
52380;SDS011;38310;52.796;6.942;2023-04-24T02:26:45;9.77;;;8.10;;
52380;SDS011;38310;52.796;6.942;2023-04-24T02:29:11;8.95;;;7.50;;
52380;SDS011;38310;52.796;6.942;2023-04-24T02:31:37;9.60;;;7.55;;
52380;SDS011;38310;52.796;6.942;2023-04-24T02:34:02;11.65;;;8.05;;
52380;SDS011;38310;52.796;6.942;2023-04-24T02:36:28;8.15;;;7.32;;
52380;SDS011;38310;52.796;6.942;2023-04-24T02:38:54;8.40;;;7.25;;
52380;SDS011;38310;52.796;6.942;2023-04-24T02:41:20;8.57;;;7.40;;
52380;SDS011;38310;52.796;6.942;2023-04-24T02:43:46;8.73;;;7.53;;
52380;SDS011;38310;52.796;6.942;2023-04-24T02:46:11;9.23;;;7.82;;
52380;SDS011;38310;52.796;6.942;2023-04-24T02:48:37;9.00;;;7.35;;
52380;SDS011;38310;52.796;6.942;2023-04-24T02:51:03;9.40;;;7.10;;
52380;SDS011;38310;52.796;6.942;2023-04-24T02:53:29;7.85;;;6.03;;
52380;SDS011;38310;52.796;6.942;2023-04-24T02:55:55;7.10;;;6.30;;
52380;SDS011;38310;52.796;6.942;2023-04-24T02:58:21;6.63;;;5.93;;
52380;SDS011;38310;52.796;6.942;2023-04-24T03:00:47;7.70;;;6.30;;
52380;SDS011;38310;52.796;6.942;2023-04-24T03:03:13;6.90;;;5.82;;
52380;SDS011;38310;52.796;6.942;2023-04-24T03:05:40;6.78;;;5.57;;
52380;SDS011;38310;52.796;6.942;2023-04-24T03:08:06;6.75;;;5.88;;
52380;SDS011;38310;52.796;6.942;2023-04-24T03:10:31;6.68;;;5.60;;
52380;SDS011;38310;52.796;6.942;2023-04-24T03:12:57;7.50;;;6.38;;
52380;SDS011;38310;52.796;6.942;2023-04-24T03:15:23;6.30;;;5.70;;
52380;SDS011;38310;52.796;6.942;2023-04-24T03:17:49;8.20;;;6.35;;
52380;SDS011;38310;52.796;6.942;2023-04-24T03:20:14;6.63;;;5.60;;
52380;SDS011;38310;52.796;6.942;2023-04-24T03:22:40;7.95;;;6.43;;
52380;SDS011;38310;52.796;6.942;2023-04-24T03:25:06;7.72;;;6.05;;
52380;SDS011;38310;52.796;6.942;2023-04-24T03:27:34;6.68;;;5.65;;
52380;SDS011;38310;52.796;6.942;2023-04-24T03:29:59;7.55;;;6.22;;
52380;SDS011;38310;52.796;6.942;2023-04-24T03:32:26;7.13;;;6.05;;
52380;SDS011;38310;52.796;6.942;2023-04-24T03:34:51;7.47;;;6.30;;
52380;SDS011;38310;52.796;6.942;2023-04-24T03:37:17;7.55;;;6.40;;
52380;SDS011;38310;52.796;6.942;2023-04-24T03:39:43;10.05;;;7.60;;
52380;SDS011;38310;52.796;6.942;2023-04-24T03:42:08;9.55;;;6.75;;
52380;SDS011;38310;52.796;6.942;2023-04-24T03:44:35;10.40;;;7.63;;
52380;SDS011;38310;52.796;6.942;2023-04-24T03:47:01;8.95;;;7.00;;
52380;SDS011;38310;52.796;6.942;2023-04-24T03:49:27;9.15;;;7.75;;
52380;SDS011;38310;52.796;6.942;2023-04-24T03:51:52;8.82;;;7.40;;
52380;SDS011;38310;52.796;6.942;2023-04-24T03:54:18;8.82;;;7.68;;
52380;SDS011;38310;52.796;6.942;2023-04-24T03:56:44;9.50;;;7.88;;
52380;SDS011;38310;52.796;6.942;2023-04-24T03:59:10;8.63;;;7.55;;
52380;SDS011;38310;52.796;6.942;2023-04-24T04:01:36;9.85;;;7.60;;
52380;SDS011;38310;52.796;6.942;2023-04-24T04:04:03;8.48;;;6.65;;
52380;SDS011;38310;52.796;6.942;2023-04-24T04:06:29;9.20;;;6.38;;
52380;SDS011;38310;52.796;6.942;2023-04-24T04:08:56;7.78;;;6.47;;
52380;SDS011;38310;52.796;6.942;2023-04-24T04:11:22;8.02;;;6.55;;
52380;SDS011;38310;52.796;6.942;2023-04-24T04:13:48;8.15;;;6.70;;
52380;SDS011;38310;52.796;6.942;2023-04-24T04:16:14;8.05;;;6.47;;
52380;SDS011;38310;52.796;6.942;2023-04-24T04:18:42;8.85;;;6.20;;
52380;SDS011;38310;52.796;6.942;2023-04-24T04:21:08;8.00;;;6.50;;
52380;SDS011;38310;52.796;6.942;2023-04-24T04:23:33;8.05;;;6.80;;
52380;SDS011;38310;52.796;6.942;2023-04-24T04:26:00;8.30;;;6.35;;
52380;SDS011;38310;52.796;6.942;2023-04-24T04:28:26;9.63;;;6.82;;
52380;SDS011;38310;52.796;6.942;2023-04-24T04:30:52;9.27;;;7.30;;
52380;SDS011;38310;52.796;6.942;2023-04-24T04:33:22;10.55;;;8.38;;
52380;SDS011;38310;52.796;6.942;2023-04-24T04:35:49;9.52;;;7.68;;
52380;SDS011;38310;52.796;6.942;2023-04-24T04:38:21;10.65;;;8.43;;
52380;SDS011;38310;52.796;6.942;2023-04-24T04:40:47;10.07;;;8.30;;
52380;SDS011;38310;52.796;6.942;2023-04-24T04:43:13;9.27;;;7.63;;
52380;SDS011;38310;52.796;6.942;2023-04-24T04:45:40;12.07;;;8.88;;
52380;SDS011;38310;52.796;6.942;2023-04-24T04:48:08;10.07;;;8.27;;
52380;SDS011;38310;52.796;6.942;2023-04-24T04:50:34;10.95;;;8.50;;
52380;SDS011;38310;52.796;6.942;2023-04-24T04:53:00;10.60;;;8.77;;
52380;SDS011;38310;52.796;6.942;2023-04-24T04:55:26;11.20;;;9.07;;
52380;SDS011;38310;52.796;6.942;2023-04-24T04:57:52;10.77;;;8.70;;
52380;SDS011;38310;52.796;6.942;2023-04-24T05:00:18;10.13;;;8.65;;
52380;SDS011;38310;52.796;6.942;2023-04-24T05:02:44;10.40;;;8.70;;
52380;SDS011;38310;52.796;6.942;2023-04-24T05:05:10;11.32;;;8.80;;
52380;SDS011;38310;52.796;6.942;2023-04-24T05:07:35;11.27;;;8.70;;
52380;SDS011;38310;52.796;6.942;2023-04-24T05:10:01;10.93;;;8.90;;
52380;SDS011;38310;52.796;6.942;2023-04-24T05:12:28;10.55;;;8.32;;
52380;SDS011;38310;52.796;6.942;2023-04-24T05:14:53;11.30;;;9.30;;
52380;SDS011;38310;52.796;6.942;2023-04-24T05:17:19;10.38;;;8.93;;
52380;SDS011;38310;52.796;6.942;2023-04-24T05:19:45;10.13;;;8.68;;
52380;SDS011;38310;52.796;6.942;2023-04-24T05:22:11;10.07;;;8.55;;
52380;SDS011;38310;52.796;6.942;2023-04-24T05:24:37;11.32;;;8.18;;
52380;SDS011;38310;52.796;6.942;2023-04-24T05:27:03;8.55;;;7.47;;
52380;SDS011;38310;52.796;6.942;2023-04-24T05:29:32;9.25;;;7.40;;
52380;SDS011;38310;52.796;6.942;2023-04-24T05:31:58;10.20;;;7.35;;
52380;SDS011;38310;52.796;6.942;2023-04-24T05:34:25;6.85;;;5.95;;
52380;SDS011;38310;52.796;6.942;2023-04-24T05:36:51;6.45;;;5.45;;
52380;SDS011;38310;52.796;6.942;2023-04-24T05:39:17;6.18;;;5.07;;
52380;SDS011;38310;52.796;6.942;2023-04-24T05:41:43;7.70;;;6.20;;
52380;SDS011;38310;52.796;6.942;2023-04-24T05:44:09;6.55;;;4.85;;
52380;SDS011;38310;52.796;6.942;2023-04-24T05:46:35;5.45;;;4.55;;
52380;SDS011;38310;52.796;6.942;2023-04-24T05:49:00;4.97;;;3.65;;
52380;SDS011;38310;52.796;6.942;2023-04-24T05:51:27;5.70;;;3.85;;
52380;SDS011;38310;52.796;6.942;2023-04-24T05:53:53;6.57;;;3.85;;
52380;SDS011;38310;52.796;6.942;2023-04-24T05:56:19;4.95;;;3.95;;
52380;SDS011;38310;52.796;6.942;2023-04-24T05:58:45;5.38;;;4.07;;
52380;SDS011;38310;52.796;6.942;2023-04-24T06:01:12;6.00;;;4.43;;
52380;SDS011;38310;52.796;6.942;2023-04-24T06:03:39;5.82;;;4.25;;
52380;SDS011;38310;52.796;6.942;2023-04-24T06:06:06;6.43;;;4.80;;
52380;SDS011;38310;52.796;6.942;2023-04-24T06:08:32;6.90;;;4.10;;
52380;SDS011;38310;52.796;6.942;2023-04-24T06:11:00;6.28;;;4.68;;
52380;SDS011;38310;52.796;6.942;2023-04-24T06:13:26;6.03;;;4.35;;
52380;SDS011;38310;52.796;6.942;2023-04-24T06:15:52;5.78;;;4.10;;
52380;SDS011;38310;52.796;6.942;2023-04-24T06:18:18;5.55;;;3.97;;
52380;SDS011;38310;52.796;6.942;2023-04-24T06:20:44;5.25;;;3.70;;
52380;SDS011;38310;52.796;6.942;2023-04-24T06:23:10;5.03;;;3.78;;
52380;SDS011;38310;52.796;6.942;2023-04-24T06:25:36;5.32;;;3.50;;
52380;SDS011;38310;52.796;6.942;2023-04-24T06:28:03;5.43;;;3.28;;
52380;SDS011;38310;52.796;6.942;2023-04-24T06:30:29;4.95;;;3.30;;
52380;SDS011;38310;52.796;6.942;2023-04-24T06:32:54;4.90;;;3.17;;
52380;SDS011;38310;52.796;6.942;2023-04-24T06:35:20;4.18;;;3.25;;
52380;SDS011;38310;52.796;6.942;2023-04-24T06:37:46;4.95;;;3.20;;
52380;SDS011;38310;52.796;6.942;2023-04-24T06:40:12;4.43;;;2.88;;
52380;SDS011;38310;52.796;6.942;2023-04-24T06:42:37;4.07;;;3.00;;
52380;SDS011;38310;52.796;6.942;2023-04-24T06:45:03;3.47;;;2.95;;
52380;SDS011;38310;52.796;6.942;2023-04-24T06:47:30;3.42;;;2.88;;
52380;SDS011;38310;52.796;6.942;2023-04-24T06:49:55;6.22;;;3.10;;
52380;SDS011;38310;52.796;6.942;2023-04-24T06:52:22;4.85;;;3.40;;
52380;SDS011;38310;52.796;6.942;2023-04-24T06:54:49;4.45;;;3.20;;
52380;SDS011;38310;52.796;6.942;2023-04-24T06:57:14;3.78;;;2.78;;
52380;SDS011;38310;52.796;6.942;2023-04-24T06:59:43;5.75;;;3.30;;
52380;SDS011;38310;52.796;6.942;2023-04-24T07:02:09;5.05;;;3.58;;
52380;SDS011;38310;52.796;6.942;2023-04-24T07:04:34;6.30;;;3.67;;
52380;SDS011;38310;52.796;6.942;2023-04-24T07:07:00;5.55;;;4.00;;
52380;SDS011;38310;52.796;6.942;2023-04-24T07:09:26;5.88;;;4.00;;
52380;SDS011;38310;52.796;6.942;2023-04-24T07:11:52;5.10;;;4.05;;
52380;SDS011;38310;52.796;6.942;2023-04-24T07:14:18;6.20;;;3.85;;
52380;SDS011;38310;52.796;6.942;2023-04-24T07:16:45;5.43;;;4.10;;
52380;SDS011;38310;52.796;6.942;2023-04-24T07:19:12;5.22;;;3.90;;
52380;SDS011;38310;52.796;6.942;2023-04-24T07:21:38;5.72;;;3.90;;
52380;SDS011;38310;52.796;6.942;2023-04-24T07:24:03;5.20;;;3.50;;
52380;SDS011;38310;52.796;6.942;2023-04-24T07:26:30;6.13;;;4.35;;
52380;SDS011;38310;52.796;6.942;2023-04-24T07:28:56;5.80;;;4.15;;
52380;SDS011;38310;52.796;6.942;2023-04-24T07:31:21;5.22;;;4.15;;
52380;SDS011;38310;52.796;6.942;2023-04-24T07:33:47;5.28;;;3.97;;
52380;SDS011;38310;52.796;6.942;2023-04-24T07:36:13;5.82;;;3.85;;
52380;SDS011;38310;52.796;6.942;2023-04-24T07:38:46;3.28;;;1.85;;
52380;SDS011;38310;52.796;6.942;2023-04-24T07:41:13;2.28;;;1.60;;
52380;SDS011;38310;52.796;6.942;2023-04-24T07:43:39;2.13;;;1.52;;
52380;SDS011;38310;52.796;6.942;2023-04-24T07:46:05;3.05;;;1.58;;
52380;SDS011;38310;52.796;6.942;2023-04-24T07:48:32;2.78;;;1.63;;
52380;SDS011;38310;52.796;6.942;2023-04-24T07:50:58;2.85;;;1.88;;
52380;SDS011;38310;52.796;6.942;2023-04-24T07:53:23;3.03;;;2.08;;
52380;SDS011;38310;52.796;6.942;2023-04-24T07:55:49;4.80;;;2.30;;
52380;SDS011;38310;52.796;6.942;2023-04-24T07:58:15;4.25;;;2.50;;
52380;SDS011;38310;52.796;6.942;2023-04-24T08:00:40;4.13;;;3.13;;
52380;SDS011;38310;52.796;6.942;2023-04-24T08:03:06;4.57;;;3.10;;
52380;SDS011;38310;52.796;6.942;2023-04-24T08:05:32;5.97;;;3.78;;
52380;SDS011;38310;52.796;6.942;2023-04-24T08:07:58;5.20;;;3.85;;
52380;SDS011;38310;52.796;6.942;2023-04-24T08:10:23;5.20;;;3.50;;
52380;SDS011;38310;52.796;6.942;2023-04-24T08:12:50;6.57;;;4.50;;
52380;SDS011;38310;52.796;6.942;2023-04-24T08:15:15;5.10;;;3.40;;
52380;SDS011;38310;52.796;6.942;2023-04-24T08:17:41;6.68;;;4.10;;
52380;SDS011;38310;52.796;6.942;2023-04-24T08:20:08;4.20;;;3.13;;
52380;SDS011;38310;52.796;6.942;2023-04-24T08:22:38;6.75;;;3.80;;
52380;SDS011;38310;52.796;6.942;2023-04-24T08:25:08;6.70;;;3.92;;
52380;SDS011;38310;52.796;6.942;2023-04-24T08:27:35;4.43;;;3.50;;
52380;SDS011;38310;52.796;6.942;2023-04-24T08:30:02;5.10;;;3.20;;
52380;SDS011;38310;52.796;6.942;2023-04-24T08:32:28;6.10;;;3.72;;
52380;SDS011;38310;52.796;6.942;2023-04-24T08:34:57;4.63;;;3.45;;
52380;SDS011;38310;52.796;6.942;2023-04-24T08:37:25;8.95;;;4.45;;
52380;SDS011;38310;52.796;6.942;2023-04-24T08:39:51;7.25;;;4.55;;
52380;SDS011;38310;52.796;6.942;2023-04-24T08:42:18;4.85;;;3.70;;
52380;SDS011;38310;52.796;6.942;2023-04-24T08:44:44;3.88;;;2.75;;
52380;SDS011;38310;52.796;6.942;2023-04-24T08:47:11;3.45;;;2.83;;
52380;SDS011;38310;52.796;6.942;2023-04-24T08:49:37;4.93;;;3.42;;
52380;SDS011;38310;52.796;6.942;2023-04-24T08:52:07;4.57;;;3.15;;
52380;SDS011;38310;52.796;6.942;2023-04-24T08:54:36;5.38;;;3.33;;
52380;SDS011;38310;52.796;6.942;2023-04-24T08:57:03;5.88;;;3.60;;
52380;SDS011;38310;52.796;6.942;2023-04-24T08:59:32;6.88;;;3.53;;
52380;SDS011;38310;52.796;6.942;2023-04-24T09:02:00;5.63;;;3.72;;
52380;SDS011;38310;52.796;6.942;2023-04-24T09:04:28;6.82;;;4.18;;
52380;SDS011;38310;52.796;6.942;2023-04-24T09:06:55;7.25;;;4.55;;
52380;SDS011;38310;52.796;6.942;2023-04-24T09:09:23;7.50;;;4.93;;
52380;SDS011;38310;52.796;6.942;2023-04-24T09:11:50;9.18;;;6.03;;
52380;SDS011;38310;52.796;6.942;2023-04-24T09:14:16;8.95;;;5.70;;
52380;SDS011;38310;52.796;6.942;2023-04-24T09:16:42;8.05;;;5.97;;
52380;SDS011;38310;52.796;6.942;2023-04-24T09:19:08;10.82;;;7.72;;
52380;SDS011;38310;52.796;6.942;2023-04-24T09:21:34;17.52;;;9.32;;
52380;SDS011;38310;52.796;6.942;2023-04-24T09:24:01;14.27;;;9.68;;
52380;SDS011;38310;52.796;6.942;2023-04-24T09:26:34;17.88;;;11.43;;
52380;SDS011;38310;52.796;6.942;2023-04-24T09:29:01;17.42;;;11.80;;
52380;SDS011;38310;52.796;6.942;2023-04-24T09:31:29;15.95;;;11.50;;
52380;SDS011;38310;52.796;6.942;2023-04-24T09:36:37;19.27;;;12.38;;
52380;SDS011;38310;52.796;6.942;2023-04-24T09:39:06;16.23;;;12.13;;
52380;SDS011;38310;52.796;6.942;2023-04-24T09:44:26;19.15;;;13.15;;
52380;SDS011;38310;52.796;6.942;2023-04-24T09:46:54;15.73;;;11.68;;
52380;SDS011;38310;52.796;6.942;2023-04-24T09:51:50;20.80;;;13.82;;
52380;SDS011;38310;52.796;6.942;2023-04-24T09:54:19;20.00;;;15.00;;
52380;SDS011;38310;52.796;6.942;2023-04-24T09:56:46;23.20;;;15.70;;
52380;SDS011;38310;52.796;6.942;2023-04-24T09:59:16;23.33;;;16.45;;
52380;SDS011;38310;52.796;6.942;2023-04-24T10:01:43;26.13;;;19.15;;
52380;SDS011;38310;52.796;6.942;2023-04-24T10:04:21;30.65;;;20.23;;
52380;SDS011;38310;52.796;6.942;2023-04-24T10:06:51;29.67;;;20.48;;
52380;SDS011;38310;52.796;6.942;2023-04-24T10:09:19;29.77;;;20.65;;
52380;SDS011;38310;52.796;6.942;2023-04-24T10:11:47;27.50;;;18.30;;
52380;SDS011;38310;52.796;6.942;2023-04-24T10:14:18;31.92;;;20.95;;
52380;SDS011;38310;52.796;6.942;2023-04-24T10:19:14;28.45;;;18.58;;
52380;SDS011;38310;52.796;6.942;2023-04-24T10:21:41;27.60;;;17.10;;
52380;SDS011;38310;52.796;6.942;2023-04-24T10:24:12;22.38;;;17.80;;
52380;SDS011;38310;52.796;6.942;2023-04-24T10:26:38;28.35;;;18.85;;
52380;SDS011;38310;52.796;6.942;2023-04-24T10:29:06;23.67;;;16.27;;
52380;SDS011;38310;52.796;6.942;2023-04-24T10:31:36;20.90;;;16.27;;
52380;SDS011;38310;52.796;6.942;2023-04-24T10:34:05;22.63;;;16.52;;
52380;SDS011;38310;52.796;6.942;2023-04-24T10:36:36;24.38;;;17.05;;
52380;SDS011;38310;52.796;6.942;2023-04-24T10:39:08;20.73;;;15.82;;
52380;SDS011;38310;52.796;6.942;2023-04-24T10:41:39;22.38;;;16.30;;
52380;SDS011;38310;52.796;6.942;2023-04-24T10:44:06;21.75;;;13.70;;
52380;SDS011;38310;52.796;6.942;2023-04-24T10:46:33;23.90;;;15.02;;
52380;SDS011;38310;52.796;6.942;2023-04-24T10:48:59;17.85;;;13.02;;
52380;SDS011;38310;52.796;6.942;2023-04-24T10:51:48;19.50;;;13.40;;
52380;SDS011;38310;52.796;6.942;2023-04-24T10:54:28;18.77;;;14.30;;
52380;SDS011;38310;52.796;6.942;2023-04-24T10:59:43;18.02;;;11.60;;
52380;SDS011;38310;52.796;6.942;2023-04-24T11:02:09;15.05;;;11.45;;
52380;SDS011;38310;52.796;6.942;2023-04-24T11:04:35;18.88;;;12.27;;
52380;SDS011;38310;52.796;6.942;2023-04-24T11:07:04;17.40;;;11.35;;
52380;SDS011;38310;52.796;6.942;2023-04-24T11:09:30;19.48;;;11.93;;
52380;SDS011;38310;52.796;6.942;2023-04-24T11:12:06;17.35;;;10.68;;
52380;SDS011;38310;52.796;6.942;2023-04-24T11:17:38;17.98;;;10.50;;
52380;SDS011;38310;52.796;6.942;2023-04-24T11:20:11;17.15;;;8.90;;
52380;SDS011;38310;52.796;6.942;2023-04-24T11:22:40;15.52;;;7.60;;
52380;SDS011;38310;52.796;6.942;2023-04-24T11:25:05;15.80;;;7.63;;
52380;SDS011;38310;52.796;6.942;2023-04-24T11:27:37;14.60;;;7.13;;
52380;SDS011;38310;52.796;6.942;2023-04-24T11:30:04;17.80;;;6.78;;
52380;SDS011;38310;52.796;6.942;2023-04-24T11:32:38;15.95;;;7.18;;
52380;SDS011;38310;52.796;6.942;2023-04-24T11:39:59;13.95;;;6.90;;
52380;SDS011;38310;52.796;6.942;2023-04-24T11:42:25;10.98;;;6.40;;
52380;SDS011;38310;52.796;6.942;2023-04-24T11:44:54;12.30;;;6.00;;
52380;SDS011;38310;52.796;6.942;2023-04-24T11:47:27;10.38;;;5.78;;
52380;SDS011;38310;52.796;6.942;2023-04-24T11:49:53;10.25;;;6.53;;
52380;SDS011;38310;52.796;6.942;2023-04-24T11:52:19;11.90;;;5.55;;
52380;SDS011;38310;52.796;6.942;2023-04-24T11:54:51;11.90;;;5.57;;
52380;SDS011;38310;52.796;6.942;2023-04-24T11:57:18;12.32;;;5.68;;
52380;SDS011;38310;52.796;6.942;2023-04-24T11:59:45;11.90;;;5.85;;
52380;SDS011;38310;52.796;6.942;2023-04-24T12:02:30;10.48;;;5.22;;
52380;SDS011;38310;52.796;6.942;2023-04-24T12:04:55;9.70;;;5.10;;
52380;SDS011;38310;52.796;6.942;2023-04-24T12:07:22;11.10;;;5.07;;
52380;SDS011;38310;52.796;6.942;2023-04-24T12:09:58;12.80;;;5.55;;
52380;SDS011;38310;52.796;6.942;2023-04-24T12:12:25;11.98;;;5.38;;
52380;SDS011;38310;52.796;6.942;2023-04-24T12:14:53;13.38;;;5.00;;
52380;SDS011;38310;52.796;6.942;2023-04-24T12:17:27;10.00;;;4.53;;
52380;SDS011;38310;52.796;6.942;2023-04-24T12:19:57;11.10;;;5.25;;
52380;SDS011;38310;52.796;6.942;2023-04-24T12:22:27;8.55;;;4.70;;
52380;SDS011;38310;52.796;6.942;2023-04-24T12:25:09;19.05;;;6.00;;
52380;SDS011;38310;52.796;6.942;2023-04-24T12:27:36;9.55;;;4.78;;
52380;SDS011;38310;52.796;6.942;2023-04-24T12:30:03;16.13;;;4.32;;
52380;SDS011;38310;52.796;6.942;2023-04-24T12:32:30;8.70;;;4.03;;
52380;SDS011;38310;52.796;6.942;2023-04-24T12:34:56;10.13;;;3.92;;
52380;SDS011;38310;52.796;6.942;2023-04-24T12:37:25;9.20;;;4.53;;
52380;SDS011;38310;52.796;6.942;2023-04-24T12:40:01;9.48;;;3.83;;
52380;SDS011;38310;52.796;6.942;2023-04-24T12:42:27;5.47;;;4.03;;
52380;SDS011;38310;52.796;6.942;2023-04-24T12:44:58;10.10;;;3.65;;
52380;SDS011;38310;52.796;6.942;2023-04-24T12:47:25;7.53;;;3.10;;
52380;SDS011;38310;52.796;6.942;2023-04-24T12:49:52;9.63;;;3.33;;
52380;SDS011;38310;52.796;6.942;2023-04-24T12:52:22;7.63;;;3.25;;
52380;SDS011;38310;52.796;6.942;2023-04-24T12:54:49;8.52;;;3.75;;
52380;SDS011;38310;52.796;6.942;2023-04-24T12:57:15;8.45;;;3.72;;
52380;SDS011;38310;52.796;6.942;2023-04-24T12:59:42;9.25;;;3.65;;
52380;SDS011;38310;52.796;6.942;2023-04-24T13:02:09;6.20;;;2.90;;
52380;SDS011;38310;52.796;6.942;2023-04-24T13:04:35;8.57;;;3.50;;
52380;SDS011;38310;52.796;6.942;2023-04-24T13:07:00;5.70;;;2.90;;
52380;SDS011;38310;52.796;6.942;2023-04-24T13:09:27;10.02;;;3.30;;
52380;SDS011;38310;52.796;6.942;2023-04-24T13:11:52;5.00;;;2.50;;
52380;SDS011;38310;52.796;6.942;2023-04-24T13:14:19;5.35;;;2.20;;
52380;SDS011;38310;52.796;6.942;2023-04-24T13:16:45;5.35;;;1.85;;
52380;SDS011;38310;52.796;6.942;2023-04-24T13:19:10;5.90;;;2.08;;
52380;SDS011;38310;52.796;6.942;2023-04-24T13:21:36;8.10;;;2.35;;
52380;SDS011;38310;52.796;6.942;2023-04-24T13:24:02;5.45;;;2.15;;
52380;SDS011;38310;52.796;6.942;2023-04-24T13:26:30;4.82;;;2.13;;
52380;SDS011;38310;52.796;6.942;2023-04-24T13:28:55;3.00;;;1.58;;
52380;SDS011;38310;52.796;6.942;2023-04-24T13:31:21;4.03;;;1.75;;
52380;SDS011;38310;52.796;6.942;2023-04-24T13:33:47;3.65;;;1.90;;
52380;SDS011;38310;52.796;6.942;2023-04-24T13:36:13;8.07;;;2.63;;
52380;SDS011;38310;52.796;6.942;2023-04-24T13:38:39;5.68;;;2.20;;
52380;SDS011;38310;52.796;6.942;2023-04-24T13:41:04;6.80;;;1.90;;
52380;SDS011;38310;52.796;6.942;2023-04-24T13:43:30;3.40;;;2.00;;
52380;SDS011;38310;52.796;6.942;2023-04-24T13:45:56;5.65;;;1.98;;
52380;SDS011;38310;52.796;6.942;2023-04-24T13:48:21;5.80;;;2.05;;
52380;SDS011;38310;52.796;6.942;2023-04-24T13:50:47;5.72;;;2.60;;
52380;SDS011;38310;52.796;6.942;2023-04-24T13:53:14;7.20;;;2.30;;
52380;SDS011;38310;52.796;6.942;2023-04-24T13:55:40;11.38;;;2.10;;
52380;SDS011;38310;52.796;6.942;2023-04-24T13:58:06;6.85;;;2.50;;
52380;SDS011;38310;52.796;6.942;2023-04-24T14:00:32;4.70;;;2.03;;
52380;SDS011;38310;52.796;6.942;2023-04-24T14:02:58;7.10;;;2.50;;
52380;SDS011;38310;52.796;6.942;2023-04-24T14:05:24;6.80;;;1.90;;
52380;SDS011;38310;52.796;6.942;2023-04-24T14:07:50;8.20;;;2.67;;
52380;SDS011;38310;52.796;6.942;2023-04-24T14:10:16;6.43;;;2.17;;
52380;SDS011;38310;52.796;6.942;2023-04-24T14:12:42;6.60;;;2.50;;
52380;SDS011;38310;52.796;6.942;2023-04-24T14:15:08;6.13;;;2.53;;
52380;SDS011;38310;52.796;6.942;2023-04-24T14:17:35;4.40;;;2.17;;
52380;SDS011;38310;52.796;6.942;2023-04-24T14:20:00;6.13;;;2.30;;
52380;SDS011;38310;52.796;6.942;2023-04-24T14:22:26;6.50;;;2.30;;
52380;SDS011;38310;52.796;6.942;2023-04-24T14:24:52;5.13;;;2.03;;
52380;SDS011;38310;52.796;6.942;2023-04-24T14:27:18;7.00;;;2.35;;
52380;SDS011;38310;52.796;6.942;2023-04-24T14:29:43;5.93;;;1.98;;
52380;SDS011;38310;52.796;6.942;2023-04-24T14:32:10;4.10;;;1.92;;
52380;SDS011;38310;52.796;6.942;2023-04-24T14:34:36;4.28;;;1.83;;
52380;SDS011;38310;52.796;6.942;2023-04-24T14:37:01;4.93;;;2.05;;
52380;SDS011;38310;52.796;6.942;2023-04-24T14:39:28;8.23;;;2.28;;
52380;SDS011;38310;52.796;6.942;2023-04-24T14:41:53;5.45;;;2.00;;
52380;SDS011;38310;52.796;6.942;2023-04-24T14:44:20;4.60;;;1.88;;
52380;SDS011;38310;52.796;6.942;2023-04-24T14:46:45;6.15;;;2.58;;
52380;SDS011;38310;52.796;6.942;2023-04-24T14:49:11;8.40;;;2.67;;
52380;SDS011;38310;52.796;6.942;2023-04-24T14:51:37;5.97;;;2.78;;
52380;SDS011;38310;52.796;6.942;2023-04-24T14:54:03;6.43;;;2.72;;
52380;SDS011;38310;52.796;6.942;2023-04-24T14:56:29;7.10;;;3.08;;
52380;SDS011;38310;52.796;6.942;2023-04-24T14:58:54;8.07;;;2.95;;
52380;SDS011;38310;52.796;6.942;2023-04-24T15:01:20;11.18;;;3.58;;